Campbell Foss — WDC7754 — position and weather

sailwx.info

Track history (hours):
 
Tides and Currents Weather Stations Pressure Air Temp Water Temp Dewpoint Dewpoint Depression Visibility Wind Speed Wind Dir Waves Ship Positions

Campbell Foss

Owner: Foss Maritime Co., Seattle, WA. More information available from US FCC via Universal Licensing System and Coast Guard Vessel Documentation Center.

Last reported at 2015-May-30 05:33 UTC. Time now 2015-May-30 06:29 UTC.
Position N 33°46' W 118°13'.

Length 23 m; draft 16 m.

Type: Tug. MMSI: 367076360.

Date/timePositionNaut miles runAvg speedWind from/ knotsBaromVisibWave heightAir tempDewpointWater temp
2015-May-30 05:33N 33°46' W 118°13'0 0.0
2015-May-30 04:34N 33°46' W 118°13'4 3.4
2015-May-30 03:21N 33°43' W 118°16'2 3.0
2015-May-30 02:33N 33°44' W 118°13'1 0.9
2015-May-30 01:33N 33°44' W 118°12'1 1.2
2015-May-30 00:31N 33°44' W 118°11'2 2.3
2015-May-29 23:33N 33°45' W 118°13'1 1.2
2015-May-29 22:33N 33°44' W 118°12'0 0.3
2015-May-29 21:33N 33°44' W 118°12'1 1.5
2015-May-29 20:33N 33°46' W 118°13'9 6.3
2015-May-29 19:11N 33°39' W 118°06'3 3.7
2015-May-29 18:30N 33°37' W 118°04'0 0.0
2015-May-29 17:20N 33°37' W 118°04'0 0.0
2015-May-29 15:29N 33°37' W 118°05'0 0.0
2015-May-29 10:31N 33°37' W 118°04'0 0.0
2015-May-29 09:26N 33°37' W 118°04'0 0.1
2015-May-29 08:23N 33°37' W 118°05'9 9.9
2015-May-29 07:28N 33°44' W 118°12'2 2.4
2015-May-29 06:33N 33°46' W 118°13'1 0.5
2015-May-29 05:33N 33°45' W 118°13'3 2.0
2015-May-29 04:04N 33°45' W 118°17'1 2.6
2015-May-29 03:33N 33°46' W 118°15'2 2.3
2015-May-29 02:33N 33°46' W 118°13'0 0.0
2015-May-29 01:33N 33°46' W 118°13'0 0.0
2015-May-29 00:33N 33°46' W 118°13'1 0.1
2015-May-28 19:33N 33°46' W 118°13'0 0.0
2015-May-28 18:33N 33°46' W 118°13'0 0.0
2015-May-28 17:33N 33°46' W 118°13'0 0.0
2015-May-28 16:33N 33°46' W 118°13'2 1.0
2015-May-28 14:33N 33°46' W 118°16'0 0.0
2015-May-28 13:33N 33°46' W 118°16'1 0.7
2015-May-28 12:15N 33°45' W 118°16'1 1.0
2015-May-28 11:27N 33°46' W 118°16'0 0.0
2015-May-28 10:28N 33°46' W 118°16'0 0.0
2015-May-28 09:33N 33°46' W 118°16'0 0.0
2015-May-28 08:33N 33°46' W 118°16'2 2.2
2015-May-28 07:33N 33°46' W 118°13'1 0.7
2015-May-28 06:33N 33°45' W 118°13'1 0.7
2015-May-28 05:33N 33°46' W 118°13'0 0.1
2015-May-28 04:33N 33°46' W 118°13'2 1.4
2015-May-28 03:09N 33°44' W 118°13'3 4.0
2015-May-28 02:27N 33°44' W 118°10'0 0.2
2015-May-28 01:33N 33°44' W 118°10'3 3.1
2015-May-28 00:33N 33°45' W 118°13'1 0.5
2015-May-27 23:25N 33°46' W 118°13'3 3.2
2015-May-27 22:25N 33°44' W 118°10'0 0.2
2015-May-27 21:33N 33°44' W 118°10'5 5.1
2015-May-27 20:33N 33°45' W 118°16'2 2.3
2015-May-27 19:33N 33°46' W 118°13'1 0.7
2015-May-27 18:33N 33°45' W 118°13'3 2.3
2015-May-27 17:15N 33°44' W 118°16'0 0.1
2015-May-27 16:27N 33°44' W 118°17'0 0.0
2015-May-27 15:22N 33°44' W 118°17'2 2.1
2015-May-27 14:33N 33°46' W 118°16'2 0.6
2015-May-27 10:33N 33°46' W 118°13'0 0.0
2015-May-27 09:27N 33°46' W 118°13'0 0.1
2015-May-27 08:29N 33°46' W 118°13'0 0.0
2015-May-27 07:30N 33°46' W 118°13'0 0.0
2015-May-27 06:12N 33°46' W 118°13'0 0.0
2015-May-27 05:24N 33°46' W 118°13'3 2.3
2015-May-27 04:10N 33°45' W 118°16'1 1.1
2015-May-27 03:30N 33°46' W 118°16'0 0.2
2015-May-27 02:33N 33°46' W 118°16'0 0.0
2015-May-27 01:27N 33°46' W 118°16'0 0.0
2015-May-27 00:33N 33°46' W 118°16'0 0.0
2015-May-26 23:33N 33°46' W 118°16'0 0.0
2015-May-26 22:33N 33°46' W 118°16'0 0.1
2015-May-26 21:28N 33°46' W 118°16'3 2.6
2015-May-26 20:16N 33°43' W 118°13'1 2.0
2015-May-26 19:33N 33°45' W 118°13'1 0.9
2015-May-26 18:33N 33°46' W 118°13'0 0.5
2015-May-26 17:33N 33°45' W 118°13'0 0.0
2015-May-26 16:33N 33°45' W 118°13'0 0.0
2015-May-26 15:34N 33°45' W 118°13'0 0.0
2015-May-26 14:33N 33°45' W 118°13'2 2.4
2015-May-26 13:33N 33°45' W 118°16'2 1.7
2015-May-26 12:31N 33°44' W 118°15'1 0.9
2015-May-26 11:16N 33°43' W 118°15'3 3.5
2015-May-26 10:33N 33°45' W 118°13'0 0.3
2015-May-26 09:33N 33°45' W 118°13'0 0.5
2015-May-26 08:33N 33°45' W 118°13'0 0.4
2015-May-26 07:33N 33°46' W 118°13'0 0.0
2015-May-26 06:33N 33°46' W 118°13'0 0.0
2015-May-26 05:33N 33°46' W 118°13'0 0.0
2015-May-26 04:33N 33°46' W 118°13'2 2.1
2015-May-26 03:33N 33°45' W 118°16'5 2.3
2015-May-26 01:24N 33°44' W 118°10'0 0.0
2015-May-26 00:05N 33°44' W 118°10'0 0.0
2015-May-25 23:31N 33°44' W 118°10'0 0.0
2015-May-25 22:31N 33°44' W 118°10'0 0.0
2015-May-25 21:33N 33°44' W 118°10'0 0.0
2015-May-25 20:30N 33°44' W 118°10'2 2.1
2015-May-25 19:33N 33°45' W 118°12'1 1.4
2015-May-25 18:33N 33°46' W 118°13'0 0.0
2015-May-25 17:33N 33°46' W 118°13'0 0.4
2015-May-25 16:33N 33°45' W 118°13'3 0.5
2015-May-25 11:26N 33°45' W 118°16'6 2.9
2015-May-25 09:20N 33°44' W 118°09'4 4.9
2015-May-25 08:33N 33°46' W 118°13'0 0.0
2015-May-25 07:33N 33°46' W 118°13'0 0.0
2015-May-25 06:33N 33°46' W 118°13'0 0.0
2015-May-25 05:33N 33°46' W 118°13'0 0.0
2015-May-25 04:33N 33°46' W 118°13'0 0.0
2015-May-25 03:33N 33°46' W 118°13'0 0.0
2015-May-25 02:33N 33°46' W 118°13'3 2.7
2015-May-25 01:33N 33°45' W 118°16'3 1.4
2015-May-24 23:33N 33°45' W 118°13'0 0.4
2015-May-24 22:33N 33°46' W 118°13'1 1.0
2015-May-24 21:33N 33°45' W 118°12'1 0.7
2015-May-24 20:33N 33°44' W 118°12'2 0.6
2015-May-24 17:33N 33°46' W 118°13'0 0.0
2015-May-24 16:33N 33°46' W 118°13'0 0.0
2015-May-24 15:33N 33°46' W 118°13'0 0.0
2015-May-24 14:33N 33°46' W 118°13'3 2.2
2015-May-24 13:25N 33°44' W 118°11'2 1.9
2015-May-24 12:31N 33°45' W 118°13'2 1.6
2015-May-24 11:32N 33°46' W 118°13'2 2.0
2015-May-24 10:18N 33°44' W 118°12'2 1.2
2015-May-24 08:33N 33°46' W 118°13'0 0.0
2015-May-24 07:33N 33°46' W 118°13'0 0.0
2015-May-24 06:31N 33°46' W 118°13'3 2.6
2015-May-24 05:33N 33°45' W 118°16'3 2.1
2015-May-24 04:10N 33°45' W 118°13'0 0.2
2015-May-24 03:33N 33°45' W 118°13'1 1.2
2015-May-24 02:33N 33°45' W 118°14'1 0.8
2015-May-24 01:33N 33°46' W 118°13'0 0.0
2015-May-24 00:33N 33°46' W 118°13'0 0.0
2015-May-23 23:33N 33°46' W 118°13'0 0.0
2015-May-23 22:33N 33°46' W 118°13'0 0.0
2015-May-23 21:33N 33°46' W 118°13'0 0.2
2015-May-23 20:33N 33°45' W 118°13'2 1.6
2015-May-23 19:33N 33°44' W 118°12'2 1.9
2015-May-23 18:33N 33°46' W 118°13'0 0.0
2015-May-23 17:33N 33°46' W 118°13'0 0.3
2015-May-23 16:33N 33°45' W 118°13'3 0.9
2015-May-23 13:33N 33°46' W 118°16'0 0.4
2015-May-23 12:29N 33°45' W 118°17'3 1.5
2015-May-23 10:33N 33°45' W 118°13'1 0.6
2015-May-23 09:27N 33°46' W 118°13'0 0.0
2015-May-23 08:33N 33°46' W 118°13'0 0.0
2015-May-23 07:33N 33°46' W 118°13'0 0.0
2015-May-23 06:33N 33°46' W 118°13'0 0.1
2015-May-23 05:33N 33°46' W 118°13'0 0.0
2015-May-23 04:33N 33°46' W 118°13'0 0.0
2015-May-23 03:33N 33°46' W 118°13'3 2.4
2015-May-23 02:24N 33°45' W 118°16'1 0.5
2015-May-23 01:21N 33°45' W 118°16'3 3.2
2015-May-23 00:33N 33°44' W 118°13'1 0.5
2015-May-22 23:33N 33°45' W 118°13'1 1.0
2015-May-22 22:33N 33°46' W 118°13'0 0.0
2015-May-22 21:33N 33°46' W 118°13'0 0.4
2015-May-22 20:33N 33°46' W 118°13'0 0.5
2015-May-22 19:34N 33°46' W 118°13'0 0.0
2015-May-22 18:31N 33°46' W 118°13'0 0.0
2015-May-22 17:33N 33°46' W 118°13'0 0.0
2015-May-22 16:33N 33°46' W 118°13'0 0.0
2015-May-22 15:34N 33°46' W 118°13'2 2.3
2015-May-22 14:34N 33°44' W 118°13'3 0.8
2015-May-22 11:30N 33°45' W 118°16'1 0.3
2015-May-22 08:16N 33°46' W 118°16'2 1.3
2015-May-22 06:34N 33°46' W 118°13'0 0.0
2015-May-22 05:33N 33°46' W 118°13'0 0.0
2015-May-22 04:34N 33°46' W 118°13'1 1.2
2015-May-22 03:29N 33°44' W 118°13'13 6.6
2015-May-22 01:28N 33°51' W 118°27'3 3.1
2015-May-22 00:32N 33°54' W 118°27'1 1.4
2015-May-21 23:30N 33°53' W 118°27'1 0.6
2015-May-21 22:33N 33°53' W 118°28'1 0.6
2015-May-21 21:33N 33°53' W 118°27'14 4.7
2015-May-21 18:33N 33°46' W 118°13'0 0.0
2015-May-21 17:29N 33°46' W 118°13'1 1.6
2015-May-21 16:33N 33°44' W 118°14'0 0.0
2015-May-21 15:34N 33°44' W 118°14'0 0.0
2015-May-21 14:23N 33°44' W 118°14'1 0.2
2015-May-21 07:20N 33°45' W 118°13'1 1.4
2015-May-21 06:33N 33°46' W 118°13'0 0.0
2015-May-21 05:33N 33°46' W 118°13'1 0.9
2015-May-21 04:33N 33°45' W 118°13'3 0.6
2015-May-20 23:30N 33°45' W 118°16'1 0.3
2015-May-20 20:33N 33°46' W 118°16'2 2.0
2015-May-20 19:33N 33°46' W 118°13'0 0.0
2015-May-20 18:18N 33°46' W 118°13'0 0.6
2015-May-20 17:32N 33°45' W 118°13'0 0.0
2015-May-20 16:33N 33°45' W 118°13'0 0.0
2015-May-20 15:31N 33°45' W 118°13'0 0.0
2015-May-20 14:17N 33°45' W 118°13'1 0.9
2015-May-20 13:20N 33°45' W 118°12'0 0.1
2015-May-20 10:29N 33°45' W 118°12'1 0.9
2015-May-20 09:33N 33°45' W 118°13'1 0.5
2015-May-20 08:33N 33°46' W 118°13'0 0.0
2015-May-20 07:33N 33°46' W 118°13'0 0.0
2015-May-20 06:17N 33°46' W 118°13'  
Track history (hours):
 
Tides and Currents Weather Stations Pressure Air Temp Water Temp Dewpoint Dewpoint Depression Visibility Wind Speed Wind Dir Waves Ship Positions

Campbell Foss

Owner: Foss Maritime Co., Seattle, WA. More information available from US FCC via Universal Licensing System and Coast Guard Vessel Documentation Center.

Last reported at 2015-May-30 05:33 UTC. Time now 2015-May-30 06:29 UTC.
Position N 33°46' W 118°13'.

Length 23 m; draft 16 m.

Type: Tug. MMSI: 367076360.

Date/timePositionNaut miles runAvg speedWind from/ knotsBaromVisibWave heightAir tempDewpointWater temp
2015-May-30 05:33N 33°46' W 118°13'0 0.0
2015-May-30 04:34N 33°46' W 118°13'4 3.4
2015-May-30 03:21N 33°43' W 118°16'2 3.0
2015-May-30 02:33N 33°44' W 118°13'1 0.9
2015-May-30 01:33N 33°44' W 118°12'1 1.2
2015-May-30 00:31N 33°44' W 118°11'2 2.3
2015-May-29 23:33N 33°45' W 118°13'1 1.2
2015-May-29 22:33N 33°44' W 118°12'0 0.3
2015-May-29 21:33N 33°44' W 118°12'1 1.5
2015-May-29 20:33N 33°46' W 118°13'9 6.3
2015-May-29 19:11N 33°39' W 118°06'3 3.7
2015-May-29 18:30N 33°37' W 118°04'0 0.0
2015-May-29 17:20N 33°37' W 118°04'0 0.0
2015-May-29 15:29N 33°37' W 118°05'0 0.0
2015-May-29 10:31N 33°37' W 118°04'0 0.0
2015-May-29 09:26N 33°37' W 118°04'0 0.1
2015-May-29 08:23N 33°37' W 118°05'9 9.9
2015-May-29 07:28N 33°44' W 118°12'2 2.4
2015-May-29 06:33N 33°46' W 118°13'1 0.5
2015-May-29 05:33N 33°45' W 118°13'3 2.0
2015-May-29 04:04N 33°45' W 118°17'1 2.6
2015-May-29 03:33N 33°46' W 118°15'2 2.3
2015-May-29 02:33N 33°46' W 118°13'0 0.0
2015-May-29 01:33N 33°46' W 118°13'0 0.0
2015-May-29 00:33N 33°46' W 118°13'1 0.1
2015-May-28 19:33N 33°46' W 118°13'0 0.0
2015-May-28 18:33N 33°46' W 118°13'0 0.0
2015-May-28 17:33N 33°46' W 118°13'0 0.0
2015-May-28 16:33N 33°46' W 118°13'2 1.0
2015-May-28 14:33N 33°46' W 118°16'0 0.0
2015-May-28 13:33N 33°46' W 118°16'1 0.7
2015-May-28 12:15N 33°45' W 118°16'1 1.0
2015-May-28 11:27N 33°46' W 118°16'0 0.0
2015-May-28 10:28N 33°46' W 118°16'0 0.0
2015-May-28 09:33N 33°46' W 118°16'0 0.0
2015-May-28 08:33N 33°46' W 118°16'2 2.2
2015-May-28 07:33N 33°46' W 118°13'1 0.7
2015-May-28 06:33N 33°45' W 118°13'1 0.7
2015-May-28 05:33N 33°46' W 118°13'0 0.1
2015-May-28 04:33N 33°46' W 118°13'2 1.4
2015-May-28 03:09N 33°44' W 118°13'3 4.0
2015-May-28 02:27N 33°44' W 118°10'0 0.2
2015-May-28 01:33N 33°44' W 118°10'3 3.1
2015-May-28 00:33N 33°45' W 118°13'1 0.5
2015-May-27 23:25N 33°46' W 118°13'3 3.2
2015-May-27 22:25N 33°44' W 118°10'0 0.2
2015-May-27 21:33N 33°44' W 118°10'5 5.1
2015-May-27 20:33N 33°45' W 118°16'2 2.3
2015-May-27 19:33N 33°46' W 118°13'1 0.7
2015-May-27 18:33N 33°45' W 118°13'3 2.3
2015-May-27 17:15N 33°44' W 118°16'0 0.1
2015-May-27 16:27N 33°44' W 118°17'0 0.0
2015-May-27 15:22N 33°44' W 118°17'2 2.1
2015-May-27 14:33N 33°46' W 118°16'2 0.6
2015-May-27 10:33N 33°46' W 118°13'0 0.0
2015-May-27 09:27N 33°46' W 118°13'0 0.1
2015-May-27 08:29N 33°46' W 118°13'0 0.0
2015-May-27 07:30N 33°46' W 118°13'0 0.0
2015-May-27 06:12N 33°46' W 118°13'0 0.0
2015-May-27 05:24N 33°46' W 118°13'3 2.3
2015-May-27 04:10N 33°45' W 118°16'1 1.1
2015-May-27 03:30N 33°46' W 118°16'0 0.2
2015-May-27 02:33N 33°46' W 118°16'0 0.0
2015-May-27 01:27N 33°46' W 118°16'0 0.0
2015-May-27 00:33N 33°46' W 118°16'0 0.0
2015-May-26 23:33N 33°46' W 118°16'0 0.0
2015-May-26 22:33N 33°46' W 118°16'0 0.1
2015-May-26 21:28N 33°46' W 118°16'3 2.6
2015-May-26 20:16N 33°43' W 118°13'1 2.0
2015-May-26 19:33N 33°45' W 118°13'1 0.9
2015-May-26 18:33N 33°46' W 118°13'0 0.5
2015-May-26 17:33N 33°45' W 118°13'0 0.0
2015-May-26 16:33N 33°45' W 118°13'0 0.0
2015-May-26 15:34N 33°45' W 118°13'0 0.0
2015-May-26 14:33N 33°45' W 118°13'2 2.4
2015-May-26 13:33N 33°45' W 118°16'2 1.7
2015-May-26 12:31N 33°44' W 118°15'1 0.9
2015-May-26 11:16N 33°43' W 118°15'3 3.5
2015-May-26 10:33N 33°45' W 118°13'0 0.3
2015-May-26 09:33N 33°45' W 118°13'0 0.5
2015-May-26 08:33N 33°45' W 118°13'0 0.4
2015-May-26 07:33N 33°46' W 118°13'0 0.0
2015-May-26 06:33N 33°46' W 118°13'0 0.0
2015-May-26 05:33N 33°46' W 118°13'0 0.0
2015-May-26 04:33N 33°46' W 118°13'2 2.1
2015-May-26 03:33N 33°45' W 118°16'5 2.3
2015-May-26 01:24N 33°44' W 118°10'0 0.0
2015-May-26 00:05N 33°44' W 118°10'0 0.0
2015-May-25 23:31N 33°44' W 118°10'0 0.0
2015-May-25 22:31N 33°44' W 118°10'0 0.0
2015-May-25 21:33N 33°44' W 118°10'0 0.0
2015-May-25 20:30N 33°44' W 118°10'2 2.1
2015-May-25 19:33N 33°45' W 118°12'1 1.4
2015-May-25 18:33N 33°46' W 118°13'0 0.0
2015-May-25 17:33N 33°46' W 118°13'0 0.4
2015-May-25 16:33N 33°45' W 118°13'3 0.5
2015-May-25 11:26N 33°45' W 118°16'6 2.9
2015-May-25 09:20N 33°44' W 118°09'4 4.9
2015-May-25 08:33N 33°46' W 118°13'0 0.0
2015-May-25 07:33N 33°46' W 118°13'0 0.0
2015-May-25 06:33N 33°46' W 118°13'0 0.0
2015-May-25 05:33N 33°46' W 118°13'0 0.0
2015-May-25 04:33N 33°46' W 118°13'0 0.0
2015-May-25 03:33N 33°46' W 118°13'0 0.0
2015-May-25 02:33N 33°46' W 118°13'3 2.7
2015-May-25 01:33N 33°45' W 118°16'3 1.4
2015-May-24 23:33N 33°45' W 118°13'0 0.4
2015-May-24 22:33N 33°46' W 118°13'1 1.0
2015-May-24 21:33N 33°45' W 118°12'1 0.7
2015-May-24 20:33N 33°44' W 118°12'2 0.6
2015-May-24 17:33N 33°46' W 118°13'0 0.0
2015-May-24 16:33N 33°46' W 118°13'0 0.0
2015-May-24 15:33N 33°46' W 118°13'0 0.0
2015-May-24 14:33N 33°46' W 118°13'3 2.2
2015-May-24 13:25N 33°44' W 118°11'2 1.9
2015-May-24 12:31N 33°45' W 118°13'2 1.6
2015-May-24 11:32N 33°46' W 118°13'2 2.0
2015-May-24 10:18N 33°44' W 118°12'2 1.2
2015-May-24 08:33N 33°46' W 118°13'0 0.0
2015-May-24 07:33N 33°46' W 118°13'0 0.0
2015-May-24 06:31N 33°46' W 118°13'3 2.6
2015-May-24 05:33N 33°45' W 118°16'3 2.1
2015-May-24 04:10N 33°45' W 118°13'0 0.2
2015-May-24 03:33N 33°45' W 118°13'1 1.2
2015-May-24 02:33N 33°45' W 118°14'1 0.8
2015-May-24 01:33N 33°46' W 118°13'0 0.0
2015-May-24 00:33N 33°46' W 118°13'0 0.0
2015-May-23 23:33N 33°46' W 118°13'0 0.0
2015-May-23 22:33N 33°46' W 118°13'0 0.0
2015-May-23 21:33N 33°46' W 118°13'0 0.2
2015-May-23 20:33N 33°45' W 118°13'2 1.6
2015-May-23 19:33N 33°44' W 118°12'2 1.9
2015-May-23 18:33N 33°46' W 118°13'0 0.0
2015-May-23 17:33N 33°46' W 118°13'0 0.3
2015-May-23 16:33N 33°45' W 118°13'3 0.9
2015-May-23 13:33N 33°46' W 118°16'0 0.4
2015-May-23 12:29N 33°45' W 118°17'3 1.5
2015-May-23 10:33N 33°45' W 118°13'1 0.6
2015-May-23 09:27N 33°46' W 118°13'0 0.0
2015-May-23 08:33N 33°46' W 118°13'0 0.0
2015-May-23 07:33N 33°46' W 118°13'0 0.0
2015-May-23 06:33N 33°46' W 118°13'0 0.1
2015-May-23 05:33N 33°46' W 118°13'0 0.0
2015-May-23 04:33N 33°46' W 118°13'0 0.0
2015-May-23 03:33N 33°46' W 118°13'3 2.4
2015-May-23 02:24N 33°45' W 118°16'1 0.5
2015-May-23 01:21N 33°45' W 118°16'3 3.2
2015-May-23 00:33N 33°44' W 118°13'1 0.5
2015-May-22 23:33N 33°45' W 118°13'1 1.0
2015-May-22 22:33N 33°46' W 118°13'0 0.0
2015-May-22 21:33N 33°46' W 118°13'0 0.4
2015-May-22 20:33N 33°46' W 118°13'0 0.5
2015-May-22 19:34N 33°46' W 118°13'0 0.0
2015-May-22 18:31N 33°46' W 118°13'0 0.0
2015-May-22 17:33N 33°46' W 118°13'0 0.0
2015-May-22 16:33N 33°46' W 118°13'0 0.0
2015-May-22 15:34N 33°46' W 118°13'2 2.3
2015-May-22 14:34N 33°44' W 118°13'3 0.8
2015-May-22 11:30N 33°45' W 118°16'1 0.3
2015-May-22 08:16N 33°46' W 118°16'2 1.3
2015-May-22 06:34N 33°46' W 118°13'0 0.0
2015-May-22 05:33N 33°46' W 118°13'0 0.0
2015-May-22 04:34N 33°46' W 118°13'1 1.2
2015-May-22 03:29N 33°44' W 118°13'13 6.6
2015-May-22 01:28N 33°51' W 118°27'3 3.1
2015-May-22 00:32N 33°54' W 118°27'1 1.4
2015-May-21 23:30N 33°53' W 118°27'1 0.6
2015-May-21 22:33N 33°53' W 118°28'1 0.6
2015-May-21 21:33N 33°53' W 118°27'14 4.7
2015-May-21 18:33N 33°46' W 118°13'0 0.0
2015-May-21 17:29N 33°46' W 118°13'1 1.6
2015-May-21 16:33N 33°44' W 118°14'0 0.0
2015-May-21 15:34N 33°44' W 118°14'0 0.0
2015-May-21 14:23N 33°44' W 118°14'1 0.2
2015-May-21 07:20N 33°45' W 118°13'1 1.4
2015-May-21 06:33N 33°46' W 118°13'0 0.0
2015-May-21 05:33N 33°46' W 118°13'1 0.9
2015-May-21 04:33N 33°45' W 118°13'3 0.6
2015-May-20 23:30N 33°45' W 118°16'1 0.3
2015-May-20 20:33N 33°46' W 118°16'2 2.0
2015-May-20 19:33N 33°46' W 118°13'0 0.0
2015-May-20 18:18N 33°46' W 118°13'0 0.6
2015-May-20 17:32N 33°45' W 118°13'0 0.0
2015-May-20 16:33N 33°45' W 118°13'0 0.0
2015-May-20 15:31N 33°45' W 118°13'0 0.0
2015-May-20 14:17N 33°45' W 118°13'1 0.9
2015-May-20 13:20N 33°45' W 118°12'0 0.1
2015-May-20 10:29N 33°45' W 118°12'1 0.9
2015-May-20 09:33N 33°45' W 118°13'1 0.5
2015-May-20 08:33N 33°46' W 118°13'0 0.0
2015-May-20 07:33N 33°46' W 118°13'0 0.0
2015-May-20 06:17N 33°46' W 118°13'  

Dump ship's entire track history